Time;durP1;ratioP1;P1;durP2;ratioP2;P2;SDS_P1;SDS_P2;PMS_P1;PMS_P2;Temp;Humidity;BMP_temperature;BMP_pressure;BME280_temperature;BME280_humidity;BME280_pressure;Samples;Min_cycle;Max_cycle;Signal;HPM_P1;HPM_P2
2022/03/20 00:00:11;;;;;;;12.77;7.68;;;;;;;20.52;34.99;102930.34;5021055;28;20054;-86
2022/03/20 00:02:41;;;;;;;9.00;7.18;;;;;;;20.52;35.10;102938.41;5009162;28;20050;-87
2022/03/20 00:05:09;;;;;;;8.48;7.05;;;;;;;20.52;35.18;102927.66;5015670;28;20053;-85
2022/03/20 00:07:38;;;;;;;8.77;6.68;;;;;;;20.52;35.36;102933.03;5013815;28;20100;-86
2022/03/20 00:10:06;;;;;;;10.63;6.90;;;;;;;20.51;35.08;102934.84;5015169;28;20045;-85
2022/03/20 00:12:36;;;;;;;7.43;6.43;;;;;;;20.52;35.01;102933.03;5015427;28;20042;-86
2022/03/20 00:15:07;;;;;;;7.28;6.07;;;;;;;20.52;35.22;102943.78;5039821;28;20070;-85
2022/03/20 00:17:35;;;;;;;10.55;6.90;;;;;;;20.52;35.05;102936.59;5015097;28;20042;-86
2022/03/20 00:20:04;;;;;;;7.90;7.05;;;;;;;20.52;35.27;102938.41;5015070;28;20425;-86
2022/03/20 00:22:34;;;;;;;9.98;7.10;;;;;;;20.52;35.22;102927.66;5014726;28;20054;-85
2022/03/20 00:25:04;;;;;;;7.95;6.63;;;;;;;20.51;35.13;102924.09;5014681;28;20041;-86
2022/03/20 00:27:32;;;;;;;9.10;6.97;;;;;;;20.51;35.22;102917.84;5013167;28;20045;-83
2022/03/20 00:30:01;;;;;;;7.50;6.80;;;;;;;20.50;35.13;102919.69;5081269;28;20509;-83
2022/03/20 00:32:28;;;;;;;7.18;6.47;;;;;;;20.51;35.13;102924.09;5014533;28;20046;-83
2022/03/20 00:34:59;;;;;;;7.53;6.32;;;;;;;20.50;35.10;102917.00;5015132;28;20050;-83
2022/03/20 00:37:28;;;;;;;8.07;7.07;;;;;;;20.50;35.29;102922.38;5015817;28;20045;-83
2022/03/20 00:39:56;;;;;;;7.32;6.18;;;;;;;20.50;35.12;102914.31;5082101;28;20073;-83
2022/03/20 00:42:23;;;;;;;7.65;6.82;;;;;;;20.49;35.11;102913.41;5014851;28;20053;-83
2022/03/20 00:44:51;;;;;;;8.70;6.93;;;;;;;20.49;34.99;102909.84;5013972;28;20045;-83
2022/03/20 00:47:18;;;;;;;7.35;6.57;;;;;;;20.49;35.11;102917.91;5013920;28;20052;-83
2022/03/20 00:49:46;;;;;;;8.85;7.35;;;;;;;20.49;35.13;102917.91;5014044;28;20041;-84
2022/03/20 00:52:13;;;;;;;10.20;6.90;;;;;;;20.48;35.14;102911.69;5014050;28;20050;-84
2022/03/20 00:54:41;;;;;;;8.93;6.47;;;;;;;20.48;34.97;102919.75;5014426;28;20038;-84
2022/03/20 00:57:08;;;;;;;7.72;6.85;;;;;;;20.47;35.21;102912.59;5014181;28;20042;-84
2022/03/20 00:59:35;;;;;;;9.20;7.03;;;;;;;20.48;35.12;102916.16;5064319;27;20494;-84
2022/03/20 01:02:04;;;;;;;7.78;6.93;;;;;;;20.48;35.20;102910.78;5137989;27;20077;-84
2022/03/20 01:04:32;;;;;;;7.70;6.90;;;;;;;20.46;35.13;102913.56;5136578;27;20051;-84
2022/03/20 01:07:00;;;;;;;8.13;6.47;;;;;;;20.46;35.14;102916.25;5139458;27;20485;-84
2022/03/20 01:09:28;;;;;;;10.57;6.65;;;;;;;20.47;35.11;102919.81;5138066;27;20508;-83
2022/03/20 01:11:57;;;;;;;8.07;6.85;;;;;;;20.46;35.12;102927.03;5117944;27;20047;-84
2022/03/20 01:14:25;;;;;;;9.02;8.02;;;;;;;20.45;35.07;102922.56;5100603;27;20051;-83
2022/03/20 01:16:54;;;;;;;8.30;7.38;;;;;;;20.46;35.04;102923.47;5138750;27;20482;-84
2022/03/20 01:19:23;;;;;;;10.85;7.40;;;;;;;20.46;35.21;102920.78;5139184;27;20335;-84
2022/03/20 01:21:51;;;;;;;8.27;7.43;;;;;;;20.45;35.26;102922.56;5119398;27;20047;-85
2022/03/20 01:24:19;;;;;;;10.23;7.47;;;;;;;20.45;35.11;102917.19;5138635;27;20043;-84
2022/03/20 01:26:46;;;;;;;9.40;7.88;;;;;;;20.45;35.07;102914.50;5139066;27;20046;-84
2022/03/20 01:29:14;;;;;;;8.20;7.03;;;;;;;20.44;34.96;102917.28;5138120;27;20047;-85
2022/03/20 01:31:41;;;;;;;7.47;6.72;;;;;;;20.44;34.91;102920.00;5100029;27;20055;-84
2022/03/20 01:34:09;;;;;;;8.45;7.60;;;;;;;20.44;35.08;102920.00;5137083;27;20047;-84
2022/03/20 01:36:37;;;;;;;7.63;6.82;;;;;;;20.44;35.02;102917.28;5117528;27;20486;-84
2022/03/20 01:39:05;;;;;;;7.90;7.00;;;;;;;20.44;34.97;102914.59;5117609;27;20047;-84
2022/03/20 01:41:32;;;;;;;7.63;6.82;;;;;;;20.43;35.04;102916.44;5117724;27;20390;-85
2022/03/20 01:44:01;;;;;;;8.25;7.45;;;;;;;20.43;35.12;102913.75;5135946;27;20046;-83
2022/03/20 01:46:32;;;;;;;8.68;7.78;;;;;;;20.44;35.18;102911.91;5118596;27;20482;-83
2022/03/20 01:49:00;;;;;;;8.07;7.18;;;;;;;20.42;34.97;102908.47;5137778;27;20378;-83
2022/03/20 01:54:13;;;;;;;9.45;7.32;;;;;;;20.43;35.23;102892.22;5139464;27;20047;-83
2022/03/20 01:56:48;;;;;;;9.43;7.15;;;;;;;20.43;35.20;102902.97;5118024;27;20066;-83
2022/03/20 01:59:17;;;;;;;8.23;6.70;;;;;;;20.43;35.15;102900.28;5137170;27;20406;-82
2022/03/20 02:01:44;;;;;;;7.40;6.57;;;;;;;20.42;35.40;102889.63;5118394;27;20043;-82
2022/03/20 02:04:15;;;;;;;7.15;6.45;;;;;;;20.42;35.32;102889.63;5135754;27;20043;-82
2022/03/20 02:06:43;;;;;;;7.18;6.53;;;;;;;20.43;35.46;102888.66;5116729;27;20051;-83
2022/03/20 02:09:11;;;;;;;7.22;6.53;;;;;;;20.42;35.33;102895.88;5118053;27;20486;-82
2022/03/20 02:11:40;;;;;;;8.65;7.22;;;;;;;20.42;35.43;102895.88;5136770;27;20043;-83
2022/03/20 02:14:09;;;;;;;7.22;6.53;;;;;;;20.42;35.25;102886.94;5118636;27;20050;-82
2022/03/20 02:16:38;;;;;;;8.20;7.40;;;;;;;20.41;35.40;102894.13;5137037;27;20467;-82
2022/03/20 02:19:08;;;;;;;8.55;7.50;;;;;;;20.41;35.25;102898.63;5117141;27;20051;-82
2022/03/20 02:21:39;;;;;;;8.45;7.55;;;;;;;20.42;35.38;102889.63;5136140;27;20112;-82
2022/03/20 02:24:30;;;;;;;9.10;7.20;;;;;;;20.41;35.37;102894.13;5137227;27;20069;-83
2022/03/20 02:27:17;;;;;;;8.82;7.93;;;;;;;20.42;35.56;102884.25;5052784;28;20065;-82
2022/03/20 02:30:12;;;;;;;8.48;6.75;;;;;;;20.40;35.27;102889.69;5052359;28;20096;-83
2022/03/20 02:32:43;;;;;;;7.80;7.10;;;;;;;20.41;35.33;102886.03;5053443;28;20057;-83
2022/03/20 02:35:14;;;;;;;7.60;6.80;;;;;;;20.41;35.24;102886.03;5053632;28;20053;-82
2022/03/20 02:37:46;;;;;;;7.47;6.50;;;;;;;20.40;35.42;102891.53;5037198;28;20061;-83
2022/03/20 02:40:16;;;;;;;8.35;7.10;;;;;;;20.40;35.46;102888.84;5054265;28;20064;-83
2022/03/20 02:42:46;;;;;;;8.45;7.15;;;;;;;20.40;35.37;102886.16;5053265;28;20049;-82
2022/03/20 02:45:16;;;;;;;8.23;7.10;;;;;;;20.40;35.48;102894.22;5051865;28;20061;-82
2022/03/20 02:47:45;;;;;;;8.13;7.30;;;;;;;20.40;35.37;102899.59;5034720;28;20049;-83
2022/03/20 02:50:18;;;;;;;9.38;7.40;;;;;;;20.40;35.50;102894.22;5052249;28;20068;-82
2022/03/20 02:53:11;;;;;;;7.75;6.85;;;;;;;20.38;35.45;102886.25;5053515;28;20049;-83
2022/03/20 02:55:45;;;;;;;8.75;6.50;;;;;;;20.40;35.21;102895.06;5053217;28;20056;-83
2022/03/20 02:58:15;;;;;;;9.50;7.63;;;;;;;20.38;35.23;102894.31;5036028;28;20224;-83
2022/03/20 03:00:44;;;;;;;8.98;7.43;;;;;;;20.39;35.56;102895.19;5052940;28;20057;-83
2022/03/20 03:03:13;;;;;;;9.50;7.28;;;;;;;20.38;35.43;102896.16;5061561;28;20060;-82
2022/03/20 03:05:42;;;;;;;8.38;7.43;;;;;;;20.38;35.38;102905.06;5116736;28;20059;-82
2022/03/20 03:11:10;;;;;;;7.90;7.10;;;;;;;20.37;35.22;102908.69;5052310;28;20433;-83
2022/03/20 03:13:39;;;;;;;7.82;7.00;;;;;;;20.38;35.37;102914.97;5052594;28;20776;-84
2022/03/20 03:16:11;;;;;;;8.20;7.20;;;;;;;20.38;35.29;102917.66;5053380;28;20049;-84
2022/03/20 03:18:45;;;;;;;8.35;7.55;;;;;;;20.39;35.32;102914.00;5056779;28;20464;-82
2022/03/20 03:21:15;;;;;;;7.90;6.90;;;;;;;20.37;35.46;102916.78;5056759;28;20061;-82
2022/03/20 03:23:43;;;;;;;7.72;7.00;;;;;;;20.36;35.39;102917.72;5056930;28;20419;-82
2022/03/20 03:26:12;;;;;;;8.05;7.35;;;;;;;20.36;35.44;102923.13;5056040;28;20056;-82
2022/03/20 03:28:40;;;;;;;7.65;6.82;;;;;;;20.37;35.34;102924.84;5056332;28;20436;-83
2022/03/20 03:31:10;;;;;;;8.27;7.43;;;;;;;20.37;35.16;102923.97;5056280;28;20504;-83
2022/03/20 03:36:26;;;;;;;7.55;6.85;;;;;;;20.36;35.30;102927.63;5054813;28;20053;-83
2022/03/20 03:38:54;;;;;;;7.85;6.97;;;;;;;20.36;35.28;102933.00;5038301;28;20049;-82
2022/03/20 03:41:21;;;;;;;8.45;7.53;;;;;;;20.35;35.28;102926.78;5056961;28;20064;-83
2022/03/20 03:43:48;;;;;;;9.05;7.28;;;;;;;20.35;35.19;102929.47;5057246;28;20477;-83
2022/03/20 03:46:16;;;;;;;8.85;8.00;;;;;;;20.36;35.31;102933.00;5075173;27;20059;-83
2022/03/20 03:48:43;;;;;;;8.50;7.25;;;;;;;20.35;35.34;102925.91;5141182;27;20047;-83
2022/03/20 03:51:10;;;;;;;8.32;7.53;;;;;;;20.34;35.00;102934.94;5139914;27;20114;-83
2022/03/20 03:53:38;;;;;;;8.35;7.55;;;;;;;20.34;35.13;102934.94;5138652;27;20501;-83
2022/03/20 03:56:06;;;;;;;8.73;7.88;;;;;;;20.33;35.30;102936.72;5139848;27;20051;-84
2022/03/20 03:58:33;;;;;;;8.23;7.43;;;;;;;20.34;35.49;102934.94;5121832;27;20467;-83
2022/03/20 04:01:00;;;;;;;9.20;8.30;;;;;;;20.34;35.04;102943.88;5139318;27;20047;-84
2022/03/20 04:03:28;;;;;;;8.82;7.75;;;;;;;20.33;35.27;102934.03;5121677;27;20047;-84
2022/03/20 04:06:04;;;;;;;8.50;7.60;;;;;;;20.32;35.05;102935.00;5139928;27;20035;-84
2022/03/20 04:08:34;;;;;;;8.48;6.97;;;;;;;20.33;35.25;102936.72;5138960;27;20043;-83
2022/03/20 04:11:02;;;;;;;9.52;8.57;;;;;;;20.34;34.96;102943.00;5120605;27;20478;-83
2022/03/20 04:13:29;;;;;;;11.43;7.88;;;;;;;20.33;35.22;102950.19;5138426;27;20043;-82
2022/03/20 04:15:57;;;;;;;7.72;7.03;;;;;;;20.33;35.26;102949.31;5120359;27;20050;-82
2022/03/20 04:18:24;;;;;;;9.68;7.90;;;;;;;20.32;35.14;102948.44;5119347;27;20525;-83
2022/03/20 04:20:52;;;;;;;7.80;7.10;;;;;;;20.33;35.02;102954.69;5138458;27;20050;-82
2022/03/20 04:26:06;;;;;;;8.77;7.70;;;;;;;20.33;35.17;102954.69;5139819;27;20047;-83
2022/03/20 04:28:33;;;;;;;9.75;8.75;;;;;;;20.33;35.08;102954.69;5138743;27;20042;-83
2022/03/20 04:31:03;;;;;;;8.45;7.63;;;;;;;20.32;35.34;102961.03;5138848;27;20046;-82
2022/03/20 04:33:31;;;;;;;8.60;7.53;;;;;;;20.32;35.17;102959.22;5120171;27;20051;-83
2022/03/20 04:35:59;;;;;;;8.18;7.38;;;;;;;20.32;35.31;102966.41;5120078;27;20046;-83
2022/03/20 04:38:27;;;;;;;8.32;7.47;;;;;;;20.31;35.02;102959.31;5138593;27;20047;-83
2022/03/20 04:40:55;;;;;;;8.85;7.95;;;;;;;20.31;35.32;102962.88;5139038;27;20051;-83
2022/03/20 04:43:22;;;;;;;7.82;7.05;;;;;;;20.31;35.17;102959.31;5121271;27;20054;-83
2022/03/20 04:45:50;;;;;;;9.18;8.07;;;;;;;20.31;35.37;102962.88;5121351;27;20051;-84
2022/03/20 04:59:22;;;;;;;9.07;8.18;;;;;;;20.29;35.09;102972.81;5138408;27;20058;-83
2022/03/20 05:01:50;;;;;;;11.02;8.48;;;;;;;20.29;35.42;102972.81;5137988;27;20478;-83
2022/03/20 05:04:17;;;;;;;10.45;8.70;;;;;;;20.28;35.32;102972.94;5138658;27;20050;-84
2022/03/20 05:06:45;;;;;;;10.32;9.25;;;;;;;20.28;35.47;102978.31;5138015;27;20083;-83
2022/03/20 05:14:44;;;;;;;9.98;8.88;;;;;;;20.28;35.17;102983.69;5138473;27;20047;-82
2022/03/20 05:17:12;;;;;;;8.00;7.22;;;;;;;20.27;35.18;102988.19;5119485;27;20046;-82
2022/03/20 05:19:40;;;;;;;8.65;7.25;;;;;;;20.25;35.34;102991.00;5137220;27;20050;-82
2022/03/20 05:22:12;;;;;;;9.95;8.38;;;;;;;20.27;35.00;103004.34;5138448;27;20066;-83
2022/03/20 05:24:40;;;;;;;8.80;7.95;;;;;;;20.27;35.55;102998.09;5138156;27;20365;-84
2022/03/20 05:27:08;;;;;;;8.23;7.35;;;;;;;20.26;35.19;102999.91;5137492;27;20047;-84
2022/03/20 05:29:36;;;;;;;8.65;7.75;;;;;;;20.26;35.18;102999.91;5138406;27;20398;-83
2022/03/20 05:32:04;;;;;;;8.30;7.30;;;;;;;20.25;35.21;103001.75;5139007;27;20394;-82
2022/03/20 05:34:33;;;;;;;9.90;8.25;;;;;;;20.25;35.13;103001.75;5137866;27;20039;-83
2022/03/20 05:37:01;;;;;;;9.23;8.32;;;;;;;20.24;35.42;103000.00;5119345;27;20062;-83
2022/03/20 05:39:29;;;;;;;9.27;7.80;;;;;;;20.25;35.47;103008.91;5137051;27;20051;-83
2022/03/20 05:41:57;;;;;;;8.95;8.05;;;;;;;20.24;35.26;103001.81;5119375;27;20398;-83
2022/03/20 05:44:26;;;;;;;9.40;8.50;;;;;;;20.24;35.29;103013.44;5119028;27;20043;-81
2022/03/20 05:46:54;;;;;;;9.75;8.63;;;;;;;20.24;35.25;103015.25;5119381;27;20045;-82
2022/03/20 05:49:23;;;;;;;8.75;7.95;;;;;;;20.24;35.23;103017.94;5137179;27;20470;-82
2022/03/20 05:51:52;;;;;;;8.38;7.50;;;;;;;20.24;35.04;103013.44;5137153;27;20412;-82
2022/03/20 05:54:20;;;;;;;8.93;8.02;;;;;;;20.24;35.36;103021.50;5137846;27;20396;-82
2022/03/20 05:59:35;;;;;;;10.18;8.18;;;;;;;20.24;35.76;103017.94;5137912;27;20112;-82
2022/03/20 06:02:04;;;;;;;8.75;7.85;;;;;;;20.24;35.99;103024.19;5136564;27;20410;-80
2022/03/20 06:04:33;;;;;;;9.27;8.38;;;;;;;20.24;35.47;103024.19;5136736;27;20039;-82
2022/03/20 06:07:01;;;;;;;9.60;8.68;;;;;;;20.23;35.07;103027.84;5136625;27;20050;-81
2022/03/20 06:09:28;;;;;;;10.55;8.75;;;;;;;20.23;34.91;103030.53;5136208;27;20038;-81
2022/03/20 06:11:56;;;;;;;10.02;9.02;;;;;;;20.24;34.70;103042.16;5136964;27;20050;-82
2022/03/20 06:14:28;;;;;;;9.40;8.50;;;;;;;20.25;34.65;103041.19;5119875;27;20047;-81
2022/03/20 06:16:56;;;;;;;8.68;7.88;;;;;;;20.25;35.35;103038.50;5136680;27;20367;-82
2022/03/20 06:19:23;;;;;;;9.50;8.60;;;;;;;20.24;34.87;103037.63;5136286;27;20112;-81
2022/03/20 06:21:51;;;;;;;9.63;8.73;;;;;;;20.25;34.92;103043.88;5137132;27;20049;-81
2022/03/20 06:24:18;;;;;;;9.57;8.65;;;;;;;20.27;35.08;103042.00;5137155;27;20039;-83
2022/03/20 06:26:45;;;;;;;10.70;9.15;;;;;;;20.25;34.99;103050.16;5137942;27;20047;-83
2022/03/20 06:29:13;;;;;;;10.52;9.13;;;;;;;20.27;34.58;103049.19;5137611;27;20047;-84
2022/03/20 06:31:41;;;;;;;9.18;7.93;;;;;;;20.27;34.84;103054.59;5135462;27;20047;-81
2022/03/20 06:34:09;;;;;;;11.80;9.95;;;;;;;20.28;34.95;103059.00;5136011;27;20050;-82
2022/03/20 06:36:36;;;;;;;8.98;8.07;;;;;;;20.27;34.95;103060.81;5136482;27;20039;-82
2022/03/20 06:39:03;;;;;;;12.23;8.98;;;;;;;20.27;34.79;103052.75;5136996;27;20493;-82
2022/03/20 06:41:31;;;;;;;9.32;8.32;;;;;;;20.27;35.09;103063.50;5137003;27;20478;-82
2022/03/20 06:43:58;;;;;;;8.52;7.72;;;;;;;20.27;34.66;103074.28;5136140;27;20379;-83
2022/03/20 06:46:27;;;;;;;8.38;7.57;;;;;;;20.29;34.65;103072.34;5136638;27;20050;-82
2022/03/20 06:48:55;;;;;;;9.93;8.80;;;;;;;20.29;34.72;103071.50;5117158;27;20050;-82
2022/03/20 06:51:22;;;;;;;9.23;8.25;;;;;;;20.29;34.52;103063.41;5135772;27;20043;-81
2022/03/20 06:53:53;;;;;;;9.77;8.75;;;;;;;20.30;34.73;103079.50;5136038;27;20050;-81
2022/03/20 06:56:20;;;;;;;9.30;8.43;;;;;;;20.30;34.50;103067.88;5135083;27;20047;-81
2022/03/20 06:58:48;;;;;;;9.30;8.32;;;;;;;20.31;34.40;103072.28;5135418;27;20390;-80
2022/03/20 07:01:17;;;;;;;9.77;8.68;;;;;;;20.32;34.41;103079.41;5135241;27;20047;-81
2022/03/20 07:03:44;;;;;;;9.23;8.43;;;;;;;20.33;34.43;103086.50;5135760;27;20043;-80
2022/03/20 07:06:12;;;;;;;11.85;9.15;;;;;;;20.32;34.62;103092.84;5136236;28;20394;-81
2022/03/20 07:08:40;;;;;;;9.57;8.50;;;;;;;20.32;34.56;103095.53;5118194;28;20043;-82
2022/03/20 07:11:07;;;;;;;9.95;8.95;;;;;;;20.32;34.51;103091.03;5136755;28;20052;-83
2022/03/20 07:13:50;;;;;;;11.23;8.32;;;;;;;20.33;34.32;103094.56;5137065;28;20043;-83
2022/03/20 07:16:19;;;;;;;;;;;;;;;20.33;34.35;103097.25;5136792;28;20066;-84
2022/03/20 07:18:47;;;;;;;10.68;8.32;;;;;;;20.32;34.26;103099.09;5136429;28;19926;-84
2022/03/20 07:21:15;;;;;;;9.68;8.75;;;;;;;20.33;34.24;103103.50;5136809;28;20413;-84
2022/03/20 07:23:42;;;;;;;9.98;8.98;;;;;;;20.33;34.41;103105.34;5136264;28;20047;-84
2022/03/20 07:31:42;;;;;;;9.98;9.02;;;;;;;20.34;34.33;103110.66;5133883;28;20051;-82
2022/03/20 07:34:11;;;;;;;10.05;8.68;;;;;;;20.35;34.38;103114.22;5134786;28;20044;-83
2022/03/20 07:36:38;;;;;;;10.05;9.15;;;;;;;20.36;34.34;103115.94;5117206;28;20047;-83
2022/03/20 07:39:05;;;;;;;10.68;9.50;;;;;;;20.36;34.40;103116.81;5100710;28;20054;-83
2022/03/20 07:41:33;;;;;;;9.82;8.82;;;;;;;20.36;34.26;103108.72;5135782;28;20393;-83
2022/03/20 07:44:00;;;;;;;9.95;8.95;;;;;;;20.37;34.20;103113.16;5135516;28;20043;-83
2022/03/20 07:46:28;;;;;;;9.95;8.95;;;;;;;20.37;34.11;103115.84;5135410;28;20398;-82
2022/03/20 07:48:56;;;;;;;10.18;9.10;;;;;;;20.39;34.18;103118.47;5134291;28;20039;-83
2022/03/20 07:51:23;;;;;;;9.70;8.80;;;;;;;20.39;34.17;103116.66;5114961;28;20039;-82
2022/03/20 07:53:50;;;;;;;10.73;9.63;;;;;;;20.39;34.17;103116.66;5115962;28;20043;-83
2022/03/20 07:56:21;;;;;;;10.68;8.80;;;;;;;20.40;34.17;103112.13;5135439;28;20043;-83
2022/03/20 07:58:50;;;;;;;10.98;8.90;;;;;;;20.40;34.14;103107.63;5136153;27;20041;-82
2022/03/20 08:01:17;;;;;;;10.00;8.85;;;;;;;20.40;34.20;103113.00;5135888;28;20035;-83
2022/03/20 08:03:50;;;;;;;10.18;8.75;;;;;;;20.41;34.27;103106.66;5119341;27;20043;-83
2022/03/20 08:06:17;;;;;;;10.35;9.23;;;;;;;20.40;34.15;103107.63;5139446;27;20054;-83
2022/03/20 08:08:46;;;;;;;9.73;8.82;;;;;;;20.42;34.32;103111.09;5139845;27;20043;-83
2022/03/20 08:11:13;;;;;;;10.32;9.30;;;;;;;20.43;34.15;103106.59;5140927;27;20046;-83
2022/03/20 08:13:43;;;;;;;11.32;8.88;;;;;;;20.43;34.37;103112.84;5139585;27;20039;-83
2022/03/20 08:16:15;;;;;;;10.20;9.02;;;;;;;20.43;34.14;103106.59;5138245;27;20051;-82
2022/03/20 08:18:44;;;;;;;10.02;8.40;;;;;;;20.44;34.30;103108.31;5103356;27;20043;-82
2022/03/20 08:21:12;;;;;;;9.85;8.88;;;;;;;20.46;34.36;103106.44;5139324;27;20050;-83
2022/03/20 08:23:40;;;;;;;11.00;9.90;;;;;;;20.45;34.17;103105.53;5139608;27;20050;-83
2022/03/20 08:26:09;;;;;;;10.75;9.65;;;;;;;20.47;34.34;103113.53;5120365;27;20047;-84
2022/03/20 08:28:37;;;;;;;11.40;9.13;;;;;;;20.47;34.20;103110.84;5140174;27;20046;-84
2022/03/20 08:31:08;;;;;;;10.40;9.32;;;;;;;20.47;34.13;103108.16;5140470;27;20347;-84
2022/03/20 08:33:36;;;;;;;9.60;8.75;;;;;;;20.48;34.09;103112.56;5139944;27;20066;-83
2022/03/20 08:36:05;;;;;;;10.70;9.40;;;;;;;20.48;34.31;103108.09;5138523;27;20505;-83
2022/03/20 08:38:33;;;;;;;9.90;8.90;;;;;;;20.48;34.19;103100.03;5139432;27;20047;-83
2022/03/20 08:41:01;;;;;;;12.15;8.95;;;;;;;20.49;34.20;103108.97;5137825;27;20043;-83
2022/03/20 08:43:28;;;;;;;11.23;9.73;;;;;;;20.48;34.24;103110.78;5137408;27;20066;-83
2022/03/20 08:45:56;;;;;;;10.07;9.07;;;;;;;20.49;34.21;103115.22;5139303;27;20050;-82
2022/03/20 08:48:23;;;;;;;10.73;9.63;;;;;;;20.50;34.30;103110.72;5138639;27;20054;-81
2022/03/20 08:50:51;;;;;;;10.40;9.30;;;;;;;20.51;34.17;103104.38;5119708;27;20043;-83
2022/03/20 08:53:19;;;;;;;10.98;9.40;;;;;;;20.52;34.26;103105.25;5103106;27;20043;-83
2022/03/20 08:55:48;;;;;;;11.05;8.73;;;;;;;20.52;34.31;103102.56;5138444;27;20043;-84
2022/03/20 08:58:16;;;;;;;10.98;9.88;;;;;;;20.51;34.28;103099.00;5137903;27;20047;-84
2022/03/20 09:00:44;;;;;;;9.95;8.77;;;;;;;20.52;34.32;103100.72;5139340;27;20062;-84
2022/03/20 09:03:13;;;;;;;9.90;8.90;;;;;;;20.53;34.18;103097.06;5136872;27;20396;-84
2022/03/20 09:05:41;;;;;;;10.30;9.27;;;;;;;20.53;34.38;103097.06;5138511;27;20047;-84
2022/03/20 09:08:08;;;;;;;10.93;9.48;;;;;;;20.53;34.36;103102.47;5138340;27;20087;-83
2022/03/20 09:10:36;;;;;;;9.50;8.50;;;;;;;20.53;34.30;103091.69;5120026;27;20050;-82
2022/03/20 09:13:03;;;;;;;9.75;8.75;;;;;;;20.53;34.16;103094.38;5120091;27;20047;-83
2022/03/20 09:15:31;;;;;;;10.52;9.43;;;;;;;20.53;34.30;103091.69;5137839;27;20058;-84
2022/03/20 09:20:46;;;;;;;10.27;9.13;;;;;;;20.54;34.49;103089.88;5138365;27;20043;-80
2022/03/20 09:23:14;;;;;;;10.13;9.13;;;;;;;20.56;34.99;103086.16;5138455;27;20058;-85
2022/03/20 09:25:42;;;;;;;9.95;8.95;;;;;;;20.58;34.84;103083.34;5137996;27;20390;-84
2022/03/20 09:28:12;;;;;;;10.38;9.15;;;;;;;20.59;35.00;103088.69;5137082;27;20050;-85
2022/03/20 09:30:41;;;;;;;12.10;9.73;;;;;;;20.60;34.91;103082.34;5136293;27;20051;-83
2022/03/20 09:33:10;;;;;;;9.13;8.23;;;;;;;20.59;34.60;103082.44;5137399;27;20039;-83
2022/03/20 09:35:38;;;;;;;9.93;8.93;;;;;;;20.59;34.26;103086.00;5136054;27;20505;-84
2022/03/20 09:38:09;;;;;;;11.38;9.73;;;;;;;20.58;34.32;103083.34;5117924;27;20050;-79
2022/03/20 09:40:38;;;;;;;11.45;10.35;;;;;;;20.58;33.15;103089.63;5117616;27;20039;-81
2022/03/20 09:43:06;;;;;;;14.75;13.20;;;;;;;20.54;31.70;103085.38;5118359;27;20051;-81
2022/03/20 09:45:35;;;;;;;14.93;13.48;;;;;;;20.39;31.78;103080.81;5135750;27;20054;-81
2022/03/20 09:48:04;;;;;;;14.88;13.00;;;;;;;20.33;31.74;103073.06;5136501;27;20051;-83
2022/03/20 09:50:33;;;;;;;16.73;15.02;;;;;;;20.27;31.54;103087.72;5135938;27;20043;-87
2022/03/20 09:53:00;;;;;;;15.73;12.65;;;;;;;20.25;32.46;103093.19;5119388;27;20062;-77
2022/03/20 09:55:28;;;;;;;15.45;12.25;;;;;;;20.24;33.23;103091.44;5138535;27;20512;-80
2022/03/20 09:57:57;;;;;;;15.85;12.95;;;;;;;20.24;32.59;103099.50;5138324;27;20039;-87
2022/03/20 10:00:25;;;;;;;14.00;12.60;;;;;;;20.23;32.60;103097.78;5119988;27;20498;-87
2022/03/20 10:02:52;;;;;;;16.00;12.70;;;;;;;20.24;32.49;103095.94;5138157;27;20050;-86
2022/03/20 10:05:22;;;;;;;14.20;12.57;;;;;;;20.24;32.60;103095.94;5138333;27;20043;-86
2022/03/20 10:07:49;;;;;;;17.95;13.77;;;;;;;20.25;32.28;103098.56;5138178;27;20050;-86
2022/03/20 10:10:25;;;;;;;14.10;12.65;;;;;;;20.29;32.73;103096.56;5137944;27;20039;-86
2022/03/20 10:12:56;;;;;;;15.48;12.75;;;;;;;20.32;32.81;103096.41;5138459;27;20059;-85
2022/03/20 10:15:37;;;;;;;13.20;11.77;;;;;;;20.31;32.50;103099.19;5138429;27;20054;-86
2022/03/20 10:18:15;;;;;;;16.95;12.88;;;;;;;20.29;32.63;103093.00;5118986;27;20047;-86
2022/03/20 10:20:48;;;;;;;14.95;12.93;;;;;;;20.29;32.72;103093.88;5118169;27;20505;-87
2022/03/20 10:23:39;;;;;;;14.27;12.73;;;;;;;20.24;32.57;103091.44;5136651;27;20047;-85
2022/03/20 10:26:18;;;;;;;13.05;11.65;;;;;;;20.26;32.32;103096.75;5116108;27;20058;-80
2022/03/20 10:28:50;;;;;;;17.55;13.15;;;;;;;20.26;31.79;103088.69;5135623;27;20047;-82
2022/03/20 10:31:20;;;;;;;14.82;13.20;;;;;;;20.25;31.80;103092.31;5116754;27;20058;-85
2022/03/20 10:33:59;;;;;;;14.23;12.73;;;;;;;20.24;31.71;103085.19;5135163;27;20051;-79
2022/03/20 10:36:26;;;;;;;13.77;12.35;;;;;;;20.26;32.74;103086.00;5135372;27;20473;-83
2022/03/20 10:38:54;;;;;;;13.63;11.70;;;;;;;20.28;33.07;103085.91;5134667;27;20047;-80
2022/03/20 10:41:27;;;;;;;12.52;11.13;;;;;;;20.30;33.03;103078.63;5136644;27;20043;-80
2022/03/20 10:43:56;;;;;;;15.90;10.85;;;;;;;20.31;33.09;103081.22;5119538;27;20047;-80
2022/03/20 10:46:26;;;;;;;14.25;11.38;;;;;;;20.32;33.22;103077.56;5137481;27;20051;-79
2022/03/20 10:48:56;;;;;;;12.38;11.10;;;;;;;20.33;33.29;103079.31;5137760;27;20047;-80
2022/03/20 10:51:38;;;;;;;13.32;11.23;;;;;;;20.34;33.30;103072.13;5136569;27;20039;-80
2022/03/20 10:54:21;;;;;;;11.68;10.57;;;;;;;20.36;33.18;103067.50;5137187;27;20039;-80
2022/03/20 10:56:55;;;;;;;12.70;10.83;;;;;;;20.37;33.01;103070.09;5138010;27;20047;-80
2022/03/20 10:59:24;;;;;;;13.32;11.40;;;;;;;20.37;33.01;103071.94;5137235;27;20054;-79
2022/03/20 11:01:51;;;;;;;11.13;10.00;;;;;;;20.37;32.99;103064.72;5137401;27;20039;-79
2022/03/20 11:04:21;;;;;;;12.43;11.23;;;;;;;20.38;32.69;103061.13;5135200;27;20051;-80
2022/03/20 11:06:59;;;;;;;12.38;11.10;;;;;;;20.38;32.99;103068.31;5134613;27;20390;-79
2022/03/20 11:09:27;;;;;;;11.95;10.75;;;;;;;20.39;32.56;103064.66;5134010;28;20047;-80
2022/03/20 11:11:59;;;;;;;11.00;9.85;;;;;;;20.38;32.56;103065.63;5134533;28;20051;-80
2022/03/20 11:14:27;;;;;;;11.00;10.00;;;;;;;20.38;32.55;103054.88;5135233;28;20073;-80
2022/03/20 11:17:09;;;;;;;12.82;10.38;;;;;;;20.38;32.46;103054.88;5134507;28;20396;-80
2022/03/20 11:19:41;;;;;;;10.73;9.73;;;;;;;20.38;31.87;103055.72;5116141;28;20051;-80
2022/03/20 11:22:14;;;;;;;12.55;10.63;;;;;;;20.37;32.12;103056.66;5115231;28;20483;-80
2022/03/20 11:24:45;;;;;;;10.52;9.30;;;;;;;20.38;32.22;103049.47;5134145;28;20043;-80
2022/03/20 11:27:23;;;;;;;12.20;10.98;;;;;;;20.38;32.20;103042.28;5134824;28;20051;-80
2022/03/20 11:30:00;;;;;;;12.43;10.63;;;;;;;20.38;32.02;103046.78;5134123;28;20074;-80
2022/03/20 11:32:28;;;;;;;11.98;10.77;;;;;;;20.38;32.20;103046.78;5134444;28;20050;-80
2022/03/20 11:34:56;;;;;;;11.10;10.00;;;;;;;20.38;32.42;103027.97;5115039;28;20406;-79
2022/03/20 11:37:44;;;;;;;11.75;10.48;;;;;;;20.38;32.50;103033.34;5135070;27;20066;-79
2022/03/20 11:40:20;;;;;;;11.80;10.63;;;;;;;20.38;32.46;103031.53;5138787;27;20043;-79
2022/03/20 11:42:50;;;;;;;11.80;10.60;;;;;;;20.39;32.45;103029.69;5138075;27;20050;-79
2022/03/20 11:45:20;;;;;;;10.48;9.48;;;;;;;20.40;32.55;103031.41;5138011;27;20509;-79
2022/03/20 11:47:52;;;;;;;11.02;9.93;;;;;;;20.39;32.51;103019.78;5137881;27;20042;-79
2022/03/20 11:50:27;;;;;;;13.48;10.13;;;;;;;20.40;32.52;103024.22;5138252;27;20367;-79
2022/03/20 11:52:58;;;;;;;12.80;9.63;;;;;;;20.41;32.67;103008.94;5137639;27;20490;-79
2022/03/20 11:55:37;;;;;;;11.30;10.10;;;;;;;20.41;32.62;103011.63;5138091;27;20484;-79
2022/03/20 11:58:24;;;;;;;11.27;9.98;;;;;;;20.40;32.68;103005.38;5119004;27;20043;-80
2022/03/20 12:01:02;;;;;;;10.60;9.50;;;;;;;20.40;32.58;102994.63;5118888;27;20051;-79
2022/03/20 12:04:04;;;;;;;10.60;9.60;;;;;;;20.40;32.59;102996.44;5138099;27;20046;-80
2022/03/20 12:06:52;;;;;;;12.05;10.20;;;;;;;20.40;32.46;102996.44;5118650;27;20043;-79
2022/03/20 12:09:45;;;;;;;11.25;10.10;;;;;;;20.40;32.06;102997.31;5137464;27;20378;-80
2022/03/20 12:12:15;;;;;;;;;;;;;;;20.39;32.13;102990.19;5137708;27;20047;-80